Time;durP1;ratioP1;P1;durP2;ratioP2;P2;SDS_P1;SDS_P2;PMS_P1;PMS_P2;Temp;Humidity;BMP_temperature;BMP_pressure;BME280_temperature;BME280_humidity;BME280_pressure;Samples;Min_cycle;Max_cycle;Signal;HPM_P1;HPM_P2
2023/04/24 00:01:42;;;;;;;1.85;0.80;;;12.00;99.90;;;;;;6064751;23;99190;-82
2023/04/24 00:04:10;;;;;;;0.60;0.60;;;12.00;99.90;;;;;;6041248;23;98555;-82
2023/04/24 00:06:38;;;;;;;0.88;0.88;;;12.00;99.90;;;;;;6040719;23;98504;-83
2023/04/24 00:09:05;;;;;;;1.95;0.90;;;12.00;99.90;;;;;;6040453;23;101886;-82
2023/04/24 00:11:32;;;;;;;1.55;1.20;;;12.00;99.90;;;;;;6065363;23;99187;-82
2023/04/24 00:13:59;;;;;;;1.30;1.30;;;11.90;99.90;;;;;;6041400;23;98527;-82
2023/04/24 00:16:26;;;;;;;1.20;1.20;;;12.00;99.90;;;;;;6092735;23;98625;-82
2023/04/24 00:18:56;;;;;;;1.30;1.20;;;11.90;99.90;;;;;;6090249;23;101282;-82
2023/04/24 00:21:25;;;;;;;1.60;1.50;;;11.90;99.90;;;;;;6067071;23;100020;-83
2023/04/24 00:23:53;;;;;;;2.25;1.60;;;11.80;99.90;;;;;;6092572;23;98469;-82
2023/04/24 00:26:19;;;;;;;2.00;1.65;;;11.80;99.90;;;;;;6066356;23;98527;-82
2023/04/24 00:28:46;;;;;;;1.70;1.60;;;11.80;99.90;;;;;;6065691;23;101716;-82
2023/04/24 00:31:13;;;;;;;2.15;1.80;;;11.80;99.90;;;;;;6041913;23;101308;-82
2023/04/24 00:33:41;;;;;;;2.53;2.22;;;11.70;99.90;;;;;;6041923;23;98608;-82
2023/04/24 00:36:08;;;;;;;1.95;1.85;;;11.70;99.90;;;;;;6066722;23;97878;-82
2023/04/24 00:38:35;;;;;;;2.40;2.30;;;11.70;99.90;;;;;;6065845;23;101728;-83
2023/04/24 00:41:03;;;;;;;2.50;2.30;;;11.70;99.90;;;;;;6092190;23;98956;-82
2023/04/24 00:43:29;;;;;;;2.78;2.58;;;11.70;99.90;;;;;;6017561;23;100359;-82
2023/04/24 00:45:57;;;;;;;2.65;2.45;;;11.70;99.90;;;;;;6066100;23;98570;-82
2023/04/24 00:48:25;;;;;;;2.83;2.63;;;11.60;99.90;;;;;;6041737;23;102226;-82
2023/04/24 00:50:52;;;;;;;3.38;3.08;;;11.70;99.90;;;;;;6091703;23;99292;-82
2023/04/24 00:53:19;;;;;;;3.72;3.42;;;11.60;99.90;;;;;;6042281;23;98550;-82
2023/04/24 00:55:46;;;;;;;3.50;3.20;;;11.60;99.90;;;;;;6042404;23;99147;-82
2023/04/24 00:58:13;;;;;;;3.80;3.50;;;11.60;99.90;;;;;;6065702;23;101867;-82
2023/04/24 01:00:40;;;;;;;4.00;3.70;;;11.60;99.90;;;;;;6090435;23;101705;-82
2023/04/24 01:03:08;;;;;;;4.25;3.95;;;11.50;99.90;;;;;;6042067;23;98438;-82
2023/04/24 01:05:35;;;;;;;4.00;3.70;;;11.60;99.90;;;;;;6066191;23;98526;-82
2023/04/24 01:08:03;;;;;;;4.60;4.10;;;11.60;99.90;;;;;;6041146;23;102460;-82
2023/04/24 01:10:32;;;;;;;4.32;3.92;;;11.60;99.90;;;;;;6041651;23;102887;-82
2023/04/24 01:13:00;;;;;;;3.92;3.63;;;11.50;99.90;;;;;;6065692;23;98565;-82
2023/04/24 01:15:26;;;;;;;3.97;3.58;;;11.50;99.90;;;;;;6066552;23;99096;-82
2023/04/24 01:17:53;;;;;;;4.35;4.00;;;11.50;99.90;;;;;;6065580;23;101867;-82
2023/04/24 01:20:21;;;;;;;3.28;3.08;;;11.60;99.90;;;;;;6066011;23;99097;-82
2023/04/24 01:22:48;;;;;;;3.50;3.30;;;11.60;99.90;;;;;;6041632;23;98563;-82
2023/04/24 01:25:16;;;;;;;2.70;2.50;;;11.60;99.90;;;;;;6066278;23;97840;-82
2023/04/24 01:27:43;;;;;;;3.83;2.63;;;11.60;99.90;;;;;;6065981;23;99418;-80
2023/04/24 01:30:12;;;;;;;2.70;2.50;;;11.50;99.90;;;;;;6066085;23;98898;-80
2023/04/24 01:32:40;;;;;;;2.97;2.78;;;11.60;99.90;;;;;;6065404;23;99284;-80
2023/04/24 01:35:07;;;;;;;2.63;2.42;;;11.60;99.90;;;;;;6065884;23;98587;-80
2023/04/24 01:37:36;;;;;;;2.53;2.33;;;11.50;99.90;;;;;;6065524;23;101945;-80
2023/04/24 01:40:07;;;;;;;2.53;2.40;;;11.60;99.90;;;;;;6065273;23;101955;-80
2023/04/24 01:42:34;;;;;;;2.78;2.60;;;11.60;99.90;;;;;;6042510;23;98439;-80
2023/04/24 01:45:03;;;;;;;3.15;2.70;;;11.60;99.90;;;;;;6065712;23;98537;-80
2023/04/24 01:47:31;;;;;;;2.90;2.70;;;11.60;99.90;;;;;;6065168;23;101757;-80
2023/04/24 01:49:58;;;;;;;3.10;2.90;;;11.60;99.90;;;;;;6041298;23;100204;-80
2023/04/24 01:52:25;;;;;;;3.58;3.38;;;11.60;99.90;;;;;;6066077;23;98515;-80
2023/04/24 01:54:53;;;;;;;4.05;3.75;;;11.60;99.90;;;;;;6065463;23;98516;-80
2023/04/24 01:57:20;;;;;;;3.50;3.20;;;11.50;99.90;;;;;;6065887;23;99929;-80
2023/04/24 01:59:47;;;;;;;3.85;3.55;;;11.50;99.90;;;;;;6041340;23;102366;-80
2023/04/24 02:02:14;;;;;;;3.80;3.60;;;11.50;99.90;;;;;;6041999;23;98429;-80
2023/04/24 02:04:41;;;;;;;4.10;3.83;;;11.40;99.90;;;;;;6065873;23;98608;-80
2023/04/24 02:07:08;;;;;;;4.50;4.20;;;11.40;99.90;;;;;;6065389;23;105306;-80
2023/04/24 02:09:35;;;;;;;5.10;4.80;;;11.40;99.90;;;;;;6065612;23;101504;-80
2023/04/24 02:12:02;;;;;;;4.80;4.50;;;11.40;99.90;;;;;;6041451;23;98635;-80
2023/04/24 02:14:29;;;;;;;4.63;4.32;;;11.40;99.90;;;;;;6066534;23;97765;-80
2023/04/24 02:16:56;;;;;;;4.43;4.13;;;11.40;99.90;;;;;;6041203;23;101772;-79
2023/04/24 02:19:22;;;;;;;5.15;4.85;;;11.40;99.90;;;;;;6041301;23;101239;-79
2023/04/24 02:21:50;;;;;;;4.68;4.38;;;11.40;99.90;;;;;;6090022;23;99275;-80
2023/04/24 02:24:17;;;;;;;5.15;4.75;;;11.40;99.90;;;;;;6065852;23;98624;-79
2023/04/24 02:26:44;;;;;;;4.85;4.50;;;11.40;99.90;;;;;;6041335;23;102151;-80
2023/04/24 02:29:11;;;;;;;4.22;3.92;;;11.40;99.90;;;;;;6064994;23;102660;-79
2023/04/24 02:31:38;;;;;;;5.32;4.93;;;11.40;99.90;;;;;;6066194;23;98444;-79
2023/04/24 02:34:05;;;;;;;4.72;4.43;;;11.40;99.90;;;;;;6090020;23;98531;-80
2023/04/24 02:36:32;;;;;;;5.22;4.82;;;11.40;99.90;;;;;;6040654;23;102084;-79
2023/04/24 02:39:00;;;;;;;5.20;4.70;;;11.40;99.90;;;;;;6041672;23;99009;-80
2023/04/24 02:41:32;;;;;;;4.57;4.28;;;11.40;99.90;;;;;;6065772;23;98470;-79
2023/04/24 02:43:59;;;;;;;5.32;4.93;;;11.40;99.90;;;;;;6042682;23;99156;-79
2023/04/24 02:46:26;;;;;;;5.00;4.60;;;11.40;99.90;;;;;;6064409;23;102495;-79
2023/04/24 02:48:53;;;;;;;5.65;5.25;;;11.40;99.90;;;;;;6041115;23;102374;-79
2023/04/24 02:51:20;;;;;;;5.10;4.70;;;11.40;99.90;;;;;;6065818;23;98574;-79
2023/04/24 02:53:47;;;;;;;5.30;4.90;;;11.40;99.90;;;;;;6041601;23;99172;-80
2023/04/24 02:56:14;;;;;;;5.82;5.43;;;11.40;99.90;;;;;;6040871;23;101717;-80
2023/04/24 02:58:42;;;;;;;5.90;5.40;;;11.40;99.90;;;;;;6041242;23;101477;-79
2023/04/24 03:01:12;;;;;;;6.00;5.50;;;11.40;99.90;;;;;;6041864;23;98626;-79
2023/04/24 03:03:39;;;;;;;6.00;5.50;;;11.40;99.90;;;;;;6067232;23;97789;-79
2023/04/24 03:06:07;;;;;;;6.57;5.97;;;11.40;99.90;;;;;;6064919;23;101904;-79
2023/04/24 03:08:35;;;;;;;5.75;5.25;;;11.40;99.90;;;;;;6064822;23;100863;-79
2023/04/24 03:11:02;;;;;;;6.60;5.78;;;11.40;99.90;;;;;;6091166;23;99359;-79
2023/04/24 03:13:29;;;;;;;5.93;5.43;;;11.40;99.90;;;;;;6041326;23;98585;-79
2023/04/24 03:15:56;;;;;;;5.68;5.28;;;11.40;99.90;;;;;;6040763;23;100287;-79
2023/04/24 03:18:23;;;;;;;6.32;5.72;;;11.40;99.90;;;;;;6041119;23;101604;-79
2023/04/24 03:20:52;;;;;;;6.97;6.28;;;11.40;99.90;;;;;;6041637;23;98580;-79
2023/04/24 03:23:18;;;;;;;6.82;6.32;;;11.40;99.90;;;;;;6041375;23;98627;-79
2023/04/24 03:25:45;;;;;;;6.45;5.95;;;11.40;99.90;;;;;;6040813;23;101739;-79
2023/04/24 03:28:12;;;;;;;6.63;6.03;;;11.40;99.90;;;;;;6041111;23;101579;-80
2023/04/24 03:30:43;;;;;;;6.40;5.90;;;11.40;99.90;;;;;;6065738;23;99013;-79
2023/04/24 03:33:11;;;;;;;6.57;6.03;;;11.40;99.90;;;;;;6041050;23;98577;-79
2023/04/24 03:35:45;;;;;;;6.55;6.05;;;11.40;99.90;;;;;;6041678;23;100881;-79
2023/04/24 03:38:13;;;;;;;7.85;5.85;;;11.30;99.90;;;;;;6040454;23;102038;-79
2023/04/24 03:40:42;;;;;;;6.85;6.25;;;11.40;99.90;;;;;;6066554;23;98496;-79
2023/04/24 03:43:23;;;;;;;6.22;5.72;;;11.40;99.90;;;;;;6044042;23;98612;-79
2023/04/24 03:45:50;;;;;;;6.85;6.35;;;11.40;99.90;;;;;;6016730;23;101703;-79
2023/04/24 03:48:19;;;;;;;6.55;6.05;;;11.40;99.90;;;;;;6041959;23;98613;-79
2023/04/24 03:50:46;;;;;;;5.60;5.20;;;11.40;99.90;;;;;;6066193;23;98471;-79
2023/04/24 03:53:15;;;;;;;6.45;5.43;;;11.40;99.90;;;;;;6042648;23;97856;-79
2023/04/24 03:55:43;;;;;;;5.53;5.13;;;11.40;99.90;;;;;;6066104;23;101966;-79
2023/04/24 03:58:11;;;;;;;6.32;5.90;;;11.30;99.90;;;;;;6065783;23;101589;-79
2023/04/24 04:00:40;;;;;;;6.30;5.80;;;11.30;99.90;;;;;;6042195;23;99169;-79
2023/04/24 04:03:42;;;;;;;5.95;5.47;;;11.30;99.90;;;;;;6081602;23;98530;-79
2023/04/24 04:06:11;;;;;;;6.05;5.45;;;11.30;99.90;;;;;;6065645;23;101945;-79
2023/04/24 04:08:38;;;;;;;6.03;5.43;;;11.30;99.90;;;;;;6018138;23;101246;-79
2023/04/24 04:11:05;;;;;;;5.70;5.20;;;11.30;99.90;;;;;;6041975;23;98432;-79
2023/04/24 04:13:32;;;;;;;6.00;5.60;;;11.20;99.90;;;;;;6066384;23;98556;-79
2023/04/24 04:15:59;;;;;;;5.78;5.35;;;11.30;99.90;;;;;;6041697;23;101308;-79
2023/04/24 04:18:26;;;;;;;6.10;5.55;;;11.20;99.90;;;;;;6090687;23;100113;-79
2023/04/24 04:20:53;;;;;;;6.18;5.68;;;11.30;99.90;;;;;;6042410;23;98601;-79
2023/04/24 04:23:20;;;;;;;6.18;5.68;;;11.30;99.90;;;;;;6066348;23;98491;-79
2023/04/24 04:26:04;;;;;;;6.57;5.20;;;11.30;99.90;;;;;;6044210;23;101829;-79
2023/04/24 04:28:47;;;;;;;5.68;5.18;;;11.30;99.90;;;;;;6065743;23;100767;-79
2023/04/24 04:31:14;;;;;;;6.32;5.63;;;11.30;99.90;;;;;;6066127;23;98503;-79
2023/04/24 04:33:41;;;;;;;6.88;6.28;;;11.30;99.90;;;;;;6042173;23;98645;-80
2023/04/24 04:36:09;;;;;;;6.43;5.82;;;11.40;99.90;;;;;;6065562;23;101650;-79
2023/04/24 04:38:42;;;;;;;6.43;5.93;;;11.40;99.90;;;;;;6042907;23;101372;-79
2023/04/24 04:41:23;;;;;;;6.15;5.65;;;11.40;99.90;;;;;;6044509;23;98676;-79
2023/04/24 04:43:52;;;;;;;7.05;6.45;;;11.30;99.90;;;;;;6042796;23;98200;-79
2023/04/24 04:46:20;;;;;;;5.97;5.47;;;11.30;99.90;;;;;;6041077;23;101738;-79
2023/04/24 04:48:57;;;;;;;7.10;6.40;;;11.40;99.90;;;;;;6065951;23;101793;-79
2023/04/24 04:51:24;;;;;;;5.88;5.45;;;11.40;99.90;;;;;;6041298;23;99276;-79
2023/04/24 04:53:51;;;;;;;6.70;6.10;;;11.40;99.90;;;;;;6042339;23;98537;-79
2023/04/24 04:56:18;;;;;;;6.50;5.90;;;11.40;99.90;;;;;;6041502;23;101513;-79
2023/04/24 04:58:45;;;;;;;6.22;5.72;;;11.40;99.90;;;;;;6065466;23;101791;-79
2023/04/24 05:01:15;;;;;;;5.90;5.40;;;11.40;99.90;;;;;;6065822;23;98459;-79
2023/04/24 05:03:45;;;;;;;5.80;5.30;;;11.40;99.90;;;;;;6042481;23;98619;-79
2023/04/24 05:06:15;;;;;;;6.22;5.40;;;11.40;99.90;;;;;;6018206;23;101859;-79
2023/04/24 05:08:43;;;;;;;5.32;4.93;;;11.50;99.90;;;;;;6042128;23;101751;-79
2023/04/24 05:11:26;;;;;;;6.25;5.65;;;11.40;99.90;;;;;;6023880;23;98642;-79
2023/04/24 05:13:55;;;;;;;6.55;5.75;;;11.40;99.90;;;;;;6042544;23;99191;-79
2023/04/24 05:16:31;;;;;;;5.88;5.30;;;11.40;99.90;;;;;;6042574;23;102903;-79
2023/04/24 05:18:58;;;;;;;5.55;5.05;;;11.40;99.90;;;;;;6065578;23;101982;-79
2023/04/24 05:21:30;;;;;;;6.50;5.93;;;11.40;99.90;;;;;;6065913;23;98643;-79
2023/04/24 05:23:57;;;;;;;5.60;5.10;;;11.50;99.90;;;;;;6066019;23;98588;-80
2023/04/24 05:26:40;;;;;;;6.90;5.60;;;11.50;99.90;;;;;;6024107;23;101523;-79
2023/04/24 05:29:08;;;;;;;5.82;5.32;;;11.50;99.90;;;;;;6065573;23;101245;-79
2023/04/24 05:31:35;;;;;;;6.35;5.75;;;11.50;99.90;;;;;;6042013;23;98959;-79
2023/04/24 05:34:02;;;;;;;6.03;5.53;;;11.50;99.90;;;;;;6066491;23;97779;-79
2023/04/24 05:36:30;;;;;;;5.85;5.18;;;11.50;99.90;;;;;;6041407;23;101388;-79
2023/04/24 05:38:58;;;;;;;6.43;5.45;;;11.50;99.90;;;;;;6065573;23;101557;-80
2023/04/24 05:41:25;;;;;;;5.82;5.25;;;11.50;99.90;;;;;;6041487;23;99301;-79
2023/04/24 05:43:52;;;;;;;6.35;5.72;;;11.50;99.90;;;;;;6066484;23;98531;-79
2023/04/24 05:46:20;;;;;;;6.70;5.93;;;11.50;99.90;;;;;;6065129;23;101526;-79
2023/04/24 05:48:47;;;;;;;6.75;6.15;;;11.60;99.90;;;;;;6060967;23;99043;-79
2023/04/24 05:51:14;;;;;;;7.38;5.97;;;11.60;99.90;;;;;;6060912;23;98594;-79
2023/04/24 05:53:41;;;;;;;6.30;5.70;;;11.60;99.90;;;;;;6036960;23;98768;-79
2023/04/24 05:56:08;;;;;;;6.10;5.50;;;11.60;99.90;;;;;;6036549;23;100302;-79
2023/04/24 05:58:37;;;;;;;6.00;5.50;;;11.60;99.90;;;;;;6060687;23;99892;-79
2023/04/24 06:01:04;;;;;;;5.57;5.07;;;11.50;99.90;;;;;;6063041;23;99040;-79
2023/04/24 06:03:33;;;;;;;6.35;5.68;;;11.60;99.90;;;;;;6060641;23;98633;-80
2023/04/24 06:06:02;;;;;;;5.75;5.15;;;11.60;99.90;;;;;;6060333;23;102216;-80
2023/04/24 06:08:29;;;;;;;6.07;5.47;;;11.60;99.90;;;;;;6060352;23;101904;-82
2023/04/24 06:10:57;;;;;;;7.30;5.32;;;11.60;99.90;;;;;;6084999;23;98550;-82
2023/04/24 06:13:24;;;;;;;5.97;4.82;;;11.70;99.90;;;;;;6036878;23;98523;-82
2023/04/24 06:16:14;;;;;;;6.07;4.88;;;11.70;99.90;;;;;;6061042;23;99883;-82
2023/04/24 06:18:47;;;;;;;5.47;4.97;;;11.70;99.90;;;;;;6037748;23;101298;-82
2023/04/24 06:21:15;;;;;;;5.57;5.07;;;11.70;99.90;;;;;;6037281;23;98921;-82
2023/04/24 06:23:42;;;;;;;4.50;4.10;;;11.80;99.90;;;;;;6037333;23;97950;-82
2023/04/24 06:26:09;;;;;;;4.70;4.30;;;11.80;99.90;;;;;;6037044;23;101862;-82
2023/04/24 06:28:37;;;;;;;4.40;4.10;;;11.80;99.90;;;;;;6036458;23;101268;-83
2023/04/24 06:31:04;;;;;;;3.85;3.55;;;11.90;99.90;;;;;;6060660;23;99356;-83
2023/04/24 06:33:32;;;;;;;4.85;4.20;;;11.90;99.90;;;;;;6062327;23;98461;-83
2023/04/24 06:35:59;;;;;;;3.80;3.50;;;12.00;99.90;;;;;;6036452;23;102496;-83
2023/04/24 06:38:26;;;;;;;3.80;3.40;;;12.00;99.90;;;;;;6060819;23;99426;-82
2023/04/24 06:40:53;;;;;;;3.67;3.38;;;12.00;99.90;;;;;;6060991;23;98665;-83
2023/04/24 06:43:20;;;;;;;4.47;4.07;;;12.10;99.90;;;;;;6062820;23;98465;-83
2023/04/24 06:45:47;;;;;;;3.47;3.17;;;12.10;99.90;;;;;;6060729;23;101149;-82
2023/04/24 06:48:14;;;;;;;3.15;2.85;;;12.20;99.90;;;;;;6060831;23;101812;-82
2023/04/24 06:50:40;;;;;;;3.72;3.38;;;12.20;99.90;;;;;;6060988;23;98713;-82
2023/04/24 06:53:09;;;;;;;3.47;3.17;;;12.20;99.90;;;;;;6060808;23;98577;-82
2023/04/24 06:55:36;;;;;;;4.55;3.40;;;12.30;99.90;;;;;;6060054;23;99981;-82
2023/04/24 06:58:03;;;;;;;3.17;2.97;;;12.30;99.90;;;;;;6060656;23;99604;-82
2023/04/24 07:00:30;;;;;;;3.20;2.90;;;12.40;99.90;;;;;;6060644;23;98542;-82
2023/04/24 07:02:57;;;;;;;3.83;3.53;;;12.40;99.90;;;;;;6036656;23;98556;-82
2023/04/24 07:05:24;;;;;;;3.17;2.92;;;12.50;99.90;;;;;;6062190;23;99265;-82
2023/04/24 07:07:51;;;;;;;3.45;3.15;;;12.60;99.90;;;;;;6060574;23;98979;-82
2023/04/24 07:10:18;;;;;;;2.95;2.75;;;12.60;99.90;;;;;;6060381;23;98492;-82
2023/04/24 07:12:46;;;;;;;3.28;3.05;;;12.70;99.90;;;;;;6062910;23;98664;-82
2023/04/24 07:15:13;;;;;;;2.65;2.45;;;12.80;99.90;;;;;;6035339;23;116523;-82
2023/04/24 07:17:43;;;;;;;3.25;3.00;;;12.80;99.90;;;;;;6084542;23;99100;-82
2023/04/24 07:20:11;;;;;;;3.10;2.90;;;12.80;99.90;;;;;;6062035;23;99112;-82
2023/04/24 07:22:38;;;;;;;4.15;3.33;;;12.90;99.90;;;;;;6060734;23;98562;-82
2023/04/24 07:25:06;;;;;;;3.15;2.85;;;13.00;99.90;;;;;;6061500;23;102153;-82
2023/04/24 07:27:34;;;;;;;3.10;2.90;;;13.10;99.90;;;;;;6061091;23;101472;-82
2023/04/24 07:30:03;;;;;;;2.97;2.67;;;13.10;99.90;;;;;;6061960;23;98507;-82
2023/04/24 07:32:30;;;;;;;2.72;2.53;;;13.20;99.90;;;;;;6061265;23;98566;-82
2023/04/24 07:34:57;;;;;;;2.90;2.70;;;13.30;99.90;;;;;;6086070;23;99212;-82
2023/04/24 07:37:24;;;;;;;2.45;2.25;;;13.40;99.90;;;;;;6062063;23;101974;-82
2023/04/24 07:39:51;;;;;;;2.17;1.98;;;13.50;99.90;;;;;;6061477;23;98538;-82
2023/04/24 07:42:18;;;;;;;2.45;2.25;;;13.50;99.90;;;;;;6061740;23;98550;-82
2023/04/24 07:44:47;;;;;;;2.08;1.98;;;13.60;99.90;;;;;;6085182;23;99914;-82
2023/04/24 07:47:17;;;;;;;2.33;2.22;;;13.70;99.90;;;;;;6060935;23;102187;-82
2023/04/24 07:49:44;;;;;;;2.83;2.63;;;13.70;99.90;;;;;;6061866;23;98520;-82
2023/04/24 07:52:11;;;;;;;3.38;3.00;;;13.70;99.90;;;;;;6037055;23;100694;-81
2023/04/24 07:54:38;;;;;;;3.10;2.85;;;13.60;99.90;;;;;;6085589;23;99374;-80
2023/04/24 07:57:06;;;;;;;3.47;3.25;;;13.40;99.90;;;;;;6063104;23;98958;-80
2023/04/24 07:59:33;;;;;;;4.35;3.95;;;13.20;99.90;;;;;;6061440;23;98465;-80
2023/04/24 08:02:01;;;;;;;4.03;3.45;;;13.10;99.90;;;;;;6062010;23;97832;-79
2023/04/24 08:04:28;;;;;;;4.60;3.55;;;12.90;99.90;;;;;;6062934;23;99260;-80
2023/04/24 08:06:55;;;;;;;4.93;3.42;;;12.80;99.90;;;;;;6060917;23;101539;-80
2023/04/24 08:09:22;;;;;;;2.83;2.45;;;12.60;99.90;;;;;;6062942;23;99185;-80
2023/04/24 08:11:49;;;;;;;1.95;1.85;;;12.40;99.90;;;;;;6063412;23;98451;-79
2023/04/24 08:14:16;;;;;;;1.67;1.58;;;12.30;99.90;;;;;;6037104;23;103043;-80
2023/04/24 08:16:43;;;;;;;2.13;1.42;;;12.30;99.90;;;;;;6061229;23;98834;-79
2023/04/24 08:19:10;;;;;;;1.98;1.88;;;12.20;99.90;;;;;;6061917;23;99604;-80
2023/04/24 08:21:37;;;;;;;1.60;1.50;;;12.10;99.90;;;;;;6061305;23;98552;-80
2023/04/24 08:24:07;;;;;;;2.03;1.92;;;12.00;99.90;;;;;;6085684;23;99192;-80
2023/04/24 08:26:34;;;;;;;2.80;1.77;;;11.90;99.90;;;;;;6061782;23;99386;-80
2023/04/24 08:29:01;;;;;;;4.18;2.22;;;11.90;99.90;;;;;;6061133;23;98503;-80
2023/04/24 08:31:28;;;;;;;4.40;2.08;;;11.90;99.90;;;;;;6063145;23;98478;-80
2023/04/24 08:33:55;;;;;;;3.00;2.30;;;11.90;99.90;;;;;;6061447;23;100449;-80
2023/04/24 08:36:22;;;;;;;4.55;2.40;;;11.80;99.90;;;;;;6061008;23;102842;-80
2023/04/24 08:38:54;;;;;;;4.93;2.80;;;11.80;99.90;;;;;;6063194;23;98530;-80
2023/04/24 08:41:22;;;;;;;2.75;2.55;;;11.70;99.90;;;;;;6086018;23;98507;-80
2023/04/24 08:43:51;;;;;;;4.35;2.38;;;11.60;99.90;;;;;;6060559;23;102244;-80
2023/04/24 08:46:20;;;;;;;2.60;2.10;;;11.50;99.90;;;;;;6060816;23;101486;-80
2023/04/24 08:48:49;;;;;;;2.78;2.17;;;11.40;99.90;;;;;;6032332;23;98506;-80
2023/04/24 08:51:17;;;;;;;4.53;2.78;;;11.40;99.90;;;;;;6057062;23;97705;-80
2023/04/24 08:53:45;;;;;;;4.72;2.45;;;11.40;99.90;;;;;;6033104;23;99501;-80
2023/04/24 08:56:13;;;;;;;5.13;3.70;;;11.40;99.90;;;;;;6007716;23;103249;-80
2023/04/24 08:58:41;;;;;;;7.30;5.25;;;11.50;99.90;;;;;;6033754;23;99153;-80
2023/04/24 09:01:08;;;;;;;9.63;4.65;;;11.50;99.90;;;;;;6008057;23;98548;-79
2023/04/24 09:03:36;;;;;;;9.82;6.03;;;11.50;99.90;;;;;;6031799;23;101811;-80
2023/04/24 09:06:06;;;;;;;8.57;6.05;;;11.40;99.90;;;;;;6031346;23;101637;-80
2023/04/24 09:08:33;;;;;;;10.57;7.35;;;11.30;99.90;;;;;;6032255;23;98476;-79
2023/04/24 09:11:02;;;;;;;13.65;7.75;;;11.30;99.90;;;;;;6031859;23;98533;-80
2023/04/24 09:13:31;;;;;;;11.07;8.23;;;11.20;99.90;;;;;;6033363;23;99206;-80
2023/04/24 09:16:00;;;;;;;17.05;10.50;;;11.10;99.90;;;;;;6007888;23;102589;-80
2023/04/24 09:18:27;;;;;;;15.30;10.20;;;11.10;99.90;;;;;;6033261;23;98472;-80
2023/04/24 09:21:02;;;;;;;19.08;11.90;;;11.20;99.90;;;;;;6030791;23;99994;-80
2023/04/24 09:23:31;;;;;;;13.82;9.68;;;11.20;99.90;;;;;;6032177;23;99987;-80
2023/04/24 09:26:00;;;;;;;19.40;11.05;;;11.20;99.90;;;;;;6033229;23;99683;-80
2023/04/24 09:28:30;;;;;;;11.00;8.45;;;11.10;99.90;;;;;;6031608;23;98725;-80
2023/04/24 09:31:05;;;;;;;15.10;10.05;;;11.10;99.90;;;;;;6033681;23;98569;-80
2023/04/24 09:33:32;;;;;;;15.48;10.75;;;11.00;99.90;;;;;;6032665;23;99013;-80
2023/04/24 09:36:00;;;;;;;14.52;10.30;;;11.00;99.90;;;;;;6030643;23;100816;-80
2023/04/24 09:38:35;;;;;;;14.32;9.52;;;11.00;99.90;;;;;;6031784;23;98540;-79
2023/04/24 09:41:08;;;;;;;13.18;10.23;;;11.10;99.90;;;;;;6034098;23;98022;-79
2023/04/24 09:43:35;;;;;;;20.77;13.13;;;11.00;99.90;;;;;;6031181;23;101519;-80
2023/04/24 09:46:08;;;;;;;17.25;10.95;;;11.00;99.90;;;;;;6030735;23;99023;-80
2023/04/24 09:48:37;;;;;;;19.07;12.37;;;11.00;99.90;;;;;;6057576;23;99268;-80
2023/04/24 09:51:10;;;;;;;15.68;11.25;;;11.00;99.90;;;;;;6061959;23;98568;-80
2023/04/24 09:53:39;;;;;;;21.38;10.57;;;11.00;99.90;;;;;;6060154;23;101962;-80
2023/04/24 09:56:12;;;;;;;13.07;10.23;;;11.00;99.90;;;;;;6059953;23;101744;-79
2023/04/24 09:58:39;;;;;;;16.52;11.60;;;11.00;99.90;;;;;;6060014;23;98457;-80
2023/04/24 10:01:06;;;;;;;17.67;11.25;;;11.00;99.90;;;;;;6061870;23;98461;-79
2023/04/24 10:03:34;;;;;;;16.65;12.45;;;11.10;99.90;;;;;;6084431;23;99162;-79
2023/04/24 10:06:02;;;;;;;18.52;11.13;;;11.10;99.90;;;;;;6061873;23;98927;-80
2023/04/24 10:08:37;;;;;;;15.07;12.25;;;11.20;99.90;;;;;;6060621;23;98493;-81
2023/04/24 10:11:04;;;;;;;13.40;10.80;;;11.20;99.90;;;;;;6061934;23;98367;-82
2023/04/24 10:13:32;;;;;;;12.20;9.68;;;11.20;99.90;;;;;;6059358;23;102490;-82
2023/04/24 10:16:01;;;;;;;15.85;9.48;;;11.30;99.90;;;;;;6036050;23;102799;-83
2023/04/24 10:18:29;;;;;;;15.00;10.15;;;11.30;99.90;;;;;;6061039;23;98514;-82
2023/04/24 10:20:57;;;;;;;13.52;9.50;;;11.40;99.90;;;;;;6084625;23;98510;-82
2023/04/24 10:23:25;;;;;;;13.55;9.40;;;11.50;99.90;;;;;;6084330;23;113734;-82
2023/04/24 10:25:53;;;;;;;14.02;8.88;;;11.40;99.90;;;;;;6062158;23;98926;-82
2023/04/24 10:28:21;;;;;;;15.18;9.02;;;11.40;99.90;;;;;;6062826;23;98374;-83
2023/04/24 10:30:49;;;;;;;12.52;8.05;;;11.40;99.90;;;;;;6061298;23;97811;-82
2023/04/24 10:33:17;;;;;;;8.93;6.90;;;11.30;99.90;;;;;;6060113;23;101887;-82
2023/04/24 10:35:48;;;;;;;11.13;7.80;;;11.30;99.90;;;;;;6060747;23;101494;-83
2023/04/24 10:38:24;;;;;;;25.25;8.27;;;11.30;99.90;;;;;;6060513;23;99228;-82
2023/04/24 10:40:51;;;;;;;15.75;7.47;;;11.40;99.90;;;;;;6061072;23;98556;-82
2023/04/24 10:43:19;;;;;;;11.82;8.30;;;11.40;99.90;;;;;;6060073;23;101489;-82
2023/04/24 10:46:06;;;;;;;8.77;7.35;;;11.60;99.90;;;;;;6060464;23;100172;-83
2023/04/24 10:48:33;;;;;;;10.13;7.03;;;11.80;99.90;;;;;;6061001;23;99276;-82
2023/04/24 10:51:01;;;;;;;12.13;7.00;;;11.90;99.90;;;;;;6060951;23;98581;-83
2023/04/24 10:53:30;;;;;;;8.90;5.10;;;12.10;99.90;;;;;;6060217;23;101900;-83
2023/04/24 10:55:56;;;;;;;9.23;5.07;;;12.20;99.90;;;;;;6062272;23;99016;-83
2023/04/24 10:58:35;;;;;;;8.73;5.40;;;12.40;99.90;;;;;;6060360;23;98550;-82
2023/04/24 11:01:02;;;;;;;11.75;5.43;;;12.50;99.90;;;;;;6061062;23;99164;-82
2023/04/24 11:03:32;;;;;;;9.77;5.38;;;12.50;99.90;;;;;;6061596;23;99761;-82
2023/04/24 11:05:59;;;;;;;8.63;5.10;;;12.60;99.90;;;;;;6061816;23;100002;-82
2023/04/24 11:08:52;;;;;;;8.68;5.57;;;12.70;99.90;;;;;;6060726;23;98578;-80
2023/04/24 11:11:21;;;;;;;10.45;5.10;;;12.70;99.90;;;;;;6060567;23;99307;-79
2023/04/24 11:13:54;;;;;;;7.05;4.72;;;12.80;99.90;;;;;;6084732;23;99288;-80
2023/04/24 11:16:28;;;;;;;9.13;4.45;;;12.80;99.90;;;;;;6060097;23;101717;-80
2023/04/24 11:19:10;;;;;;;7.97;4.18;;;12.80;99.90;;;;;;6062500;23;98491;-80
2023/04/24 11:21:48;;;;;;;9.40;4.50;;;13.00;99.90;;;;;;6061397;23;98306;-80
2023/04/24 11:24:25;;;;;;;9.15;3.90;;;13.00;99.90;;;;;;6084407;23;99493;-80
2023/04/24 11:27:05;;;;;;;5.65;3.20;;;13.20;99.90;;;;;;6060314;23;101723;-80
2023/04/24 11:29:44;;;;;;;3.83;3.05;;;13.30;99.90;;;;;;6060386;23;99306;-80
2023/04/24 11:32:17;;;;;;;3.67;2.60;;;13.40;99.90;;;;;;6062201;23;98488;-80
2023/04/24 11:35:01;;;;;;;5.75;2.90;;;13.30;99.90;;;;;;6060130;23;101970;-80
2023/04/24 11:37:49;;;;;;;5.82;2.78;;;13.50;99.90;;;;;;6060648;23;101650;-80
2023/04/24 11:40:25;;;;;;;6.60;2.30;;;13.40;99.90;;;;;;6060455;23;98659;-80
2023/04/24 11:42:55;;;;;;;;;;;13.40;99.90;;;;;;6061262;23;98573;-80
2023/04/24 11:45:25;;;;;;;8.00;2.00;;;13.20;99.90;;;;;;6061412;23;99159;-80
2023/04/24 11:47:52;;;;;;;6.18;2.50;;;13.20;99.90;;;;;;6059821;23;104584;-80
2023/04/24 11:50:21;;;;;;;6.03;2.33;;;13.40;99.90;;;;;;6036620;23;99507;-80
2023/04/24 11:52:50;;;;;;;5.05;2.30;;;13.60;99.90;;;;;;6060766;23;98570;-80
2023/04/24 11:55:17;;;;;;;7.47;2.78;;;13.60;99.90;;;;;;6059267;23;101218;-80
2023/04/24 11:57:49;;;;;;;6.10;2.85;;;13.50;99.90;;;;;;6035625;23;102165;-79
2023/04/24 12:00:18;;;;;;;5.72;2.30;;;13.60;99.90;;;;;;6061787;23;98511;-79
2023/04/24 12:02:46;;;;;;;5.57;2.38;;;13.50;99.90;;;;;;6062392;23;98884;-80
2023/04/24 12:05:25;;;;;;;5.05;2.03;;;13.30;99.90;;;;;;6061261;23;99255;-80
2023/04/24 12:07:53;;;;;;;5.13;2.53;;;13.50;99.90;;;;;;6061668;23;98881;-80
2023/04/24 12:10:25;;;;;;;5.75;2.10;;;13.60;99.90;;;;;;6061279;23;98458;-79
2023/04/24 12:12:52;;;;;;;6.25;2.42;;;13.70;99.90;;;;;;6038040;23;97864;-80
2023/04/24 12:15:20;;;;;;;4.95;2.47;;;13.90;99.90;;;;;;6060856;23;101871;-80
2023/04/24 12:17:48;;;;;;;8.63;3.25;;;14.30;99.90;;;;;;6062145;23;99057;-80
2023/04/24 12:20:15;;;;;;;4.70;2.10;;;14.50;99.90;;;;;;6060964;23;99281;-79
2023/04/24 12:22:47;;;;;;;5.47;2.47;;;14.50;99.90;;;;;;6063343;23;99081;-80
2023/04/24 12:25:17;;;;;;;4.90;3.00;;;14.50;99.90;;;;;;6062585;23;99007;-80
2023/04/24 12:27:45;;;;;;;5.00;2.55;;;14.30;99.90;;;;;;6085248;23;102428;-80
2023/04/24 12:30:15;;;;;;;6.80;2.40;;;14.20;99.90;;;;;;6063077;23;98550;-80
2023/04/24 12:32:47;;;;;;;3.60;2.00;;;13.90;99.90;;;;;;6062638;23;100278;-79
2023/04/24 12:35:20;;;;;;;5.40;2.05;;;13.60;99.90;;;;;;6060876;23;101784;-79
2023/04/24 12:37:48;;;;;;;5.95;2.20;;;13.40;99.90;;;;;;6037617;23;98898;-79
2023/04/24 12:40:15;;;;;;;7.45;2.10;;;13.00;99.90;;;;;;6061453;23;98533;-79
2023/04/24 12:42:45;;;;;;;3.38;1.60;;;12.90;99.90;;;;;;6061267;23;98587;-79
2023/04/24 12:45:13;;;;;;;4.20;1.60;;;12.80;99.90;;;;;;6035871;23;102735;-79
2023/04/24 12:47:41;;;;;;;4.03;1.73;;;12.70;99.90;;;;;;6012665;23;99740;-79
2023/04/24 12:50:11;;;;;;;6.18;2.00;;;12.70;99.90;;;;;;6061598;23;98427;-79